Time;durP1;ratioP1;P1;durP2;ratioP2;P2;SDS_P1;SDS_P2;PMS_P1;PMS_P2;Temp;Humidity;BMP_temperature;BMP_pressure;BME280_temperature;BME280_humidity;BME280_pressure;Samples;Min_cycle;Max_cycle;Signal;HPM_P1;HPM_P2
2023/10/28 00:00:50;;;;;;;1999.90;999.90;;;9.70;99.90;;;;;;5039553;28;20037;-70
2023/10/28 00:03:16;;;;;;;1999.90;999.90;;;9.70;99.90;;;;;;5045715;28;20105;-70
2023/10/28 00:05:42;;;;;;;1999.90;999.90;;;9.70;99.90;;;;;;5044017;28;20072;-73
2023/10/28 00:08:08;;;;;;;1999.90;999.90;;;9.70;99.90;;;;;;5046082;28;20025;-70
2023/10/28 00:10:35;;;;;;;1999.90;999.90;;;9.70;99.90;;;;;;5045673;28;20518;-70
2023/10/28 00:13:02;;;;;;;1999.90;999.90;;;9.70;99.90;;;;;;5043032;28;20036;-70
2023/10/28 00:15:28;;;;;;;1999.90;999.90;;;9.80;99.90;;;;;;5042766;28;20123;-76
2023/10/28 00:17:54;;;;;;;1999.90;999.90;;;9.80;99.90;;;;;;5044359;28;20120;-70
2023/10/28 00:20:21;;;;;;;1999.90;999.90;;;9.80;99.90;;;;;;5049444;28;20095;-70
2023/10/28 00:22:49;;;;;;;1999.90;999.90;;;9.80;99.90;;;;;;5042710;28;20042;-78
2023/10/28 00:25:16;;;;;;;1999.90;999.90;;;9.80;99.90;;;;;;5041273;28;20075;-70
2023/10/28 00:27:43;;;;;;;1999.90;999.90;;;9.70;99.90;;;;;;5047964;28;20040;-71
2023/10/28 00:30:10;;;;;;;1999.90;999.90;;;9.70;99.90;;;;;;5049835;28;20032;-70
2023/10/28 00:32:40;;;;;;;1999.90;999.90;;;9.70;99.90;;;;;;5043073;28;20458;-71
2023/10/28 00:35:11;;;;;;;1999.90;999.90;;;9.70;99.90;;;;;;5043193;28;20030;-71
2023/10/28 00:37:37;;;;;;;1999.90;999.90;;;9.70;99.90;;;;;;5050461;28;20416;-71
2023/10/28 00:40:07;;;;;;;1999.90;999.90;;;9.70;99.90;;;;;;5045602;28;20043;-71
2023/10/28 00:42:36;;;;;;;1999.90;999.90;;;9.70;99.90;;;;;;5046876;28;20315;-70
2023/10/28 00:45:08;;;;;;;1999.90;999.90;;;9.70;99.90;;;;;;5045108;28;20427;-70
2023/10/28 00:47:38;;;;;;;1999.90;999.90;;;9.70;99.90;;;;;;5037663;28;20427;-70
2023/10/28 00:50:14;;;;;;;1999.90;999.90;;;9.70;99.90;;;;;;5045617;28;20471;-70
2023/10/28 00:52:45;;;;;;;1999.90;999.90;;;9.70;99.90;;;;;;5051052;28;20111;-71
2023/10/28 00:55:12;;;;;;;1999.90;999.90;;;9.70;99.90;;;;;;5045470;28;20029;-70
2023/10/28 00:57:42;;;;;;;1999.90;999.90;;;9.70;99.90;;;;;;5047344;28;20033;-70
2023/10/28 01:00:10;;;;;;;1999.90;999.90;;;9.70;99.90;;;;;;5042072;28;20072;-71
2023/10/28 01:02:38;;;;;;;1999.90;999.90;;;9.70;99.90;;;;;;5052807;28;20111;-70
2023/10/28 01:05:05;;;;;;;1999.90;999.90;;;9.70;99.90;;;;;;5051887;28;20083;-71
2023/10/28 01:07:31;;;;;;;;;;;9.70;99.90;;;;;;5050887;28;20030;-71
2023/10/28 01:09:57;;;;;;;1999.90;999.90;;;9.70;99.90;;;;;;5054861;28;19909;-70
2023/10/28 01:12:23;;;;;;;1999.90;999.90;;;9.70;99.90;;;;;;5045591;28;20040;-71
2023/10/28 01:14:50;;;;;;;1999.90;999.90;;;9.70;99.90;;;;;;5047851;28;20033;-71
2023/10/28 01:17:16;;;;;;;1999.90;999.90;;;9.60;99.90;;;;;;5051695;28;20174;-70
2023/10/28 01:19:42;;;;;;;1999.90;999.90;;;9.70;99.90;;;;;;5051602;28;20036;-70
2023/10/28 01:22:08;;;;;;;1999.90;999.90;;;9.70;99.90;;;;;;5042349;28;20029;-70
2023/10/28 01:24:35;;;;;;;1999.90;999.90;;;9.70;99.90;;;;;;5047192;28;20021;-70
2023/10/28 01:27:01;;;;;;;1999.90;999.90;;;9.70;99.90;;;;;;5052997;28;20300;-71
2023/10/28 01:29:28;;;;;;;1999.90;999.90;;;9.70;99.90;;;;;;5052668;28;20108;-71
2023/10/28 01:31:54;;;;;;;1999.90;999.90;;;9.60;99.90;;;;;;5043085;28;20025;-70
2023/10/28 01:34:22;;;;;;;1999.90;999.90;;;9.60;99.90;;;;;;5046061;28;20025;-71
2023/10/28 01:36:47;;;;;;;1999.90;999.90;;;9.60;99.90;;;;;;5051234;28;20024;-70
2023/10/28 01:39:15;;;;;;;1999.90;999.90;;;9.60;99.90;;;;;;5049759;28;20026;-70
2023/10/28 01:41:41;;;;;;;;;;;9.50;99.90;;;;;;5053701;28;20029;-75
2023/10/28 01:44:07;;;;;;;1999.90;999.90;;;9.50;99.90;;;;;;5053243;28;19920;-71
2023/10/28 01:46:32;;;;;;;1999.90;999.90;;;9.40;99.90;;;;;;5055027;28;20033;-71
2023/10/28 01:48:58;;;;;;;1999.90;999.90;;;9.40;99.90;;;;;;5049967;28;20060;-70
2023/10/28 01:51:24;;;;;;;1999.90;999.90;;;9.50;99.90;;;;;;5046878;28;20041;-70
2023/10/28 01:53:49;;;;;;;1999.90;999.90;;;9.50;99.90;;;;;;5054186;28;20489;-71
2023/10/28 01:56:15;;;;;;;1999.90;999.90;;;9.50;99.90;;;;;;5052006;28;20439;-71
2023/10/28 01:58:41;;;;;;;1999.90;999.90;;;9.50;99.90;;;;;;5050585;28;20052;-70
2023/10/28 02:01:06;;;;;;;1999.90;999.90;;;9.40;99.90;;;;;;5054739;28;20316;-71
2023/10/28 02:03:32;;;;;;;1999.90;999.90;;;9.50;99.90;;;;;;5053196;28;20017;-71
2023/10/28 02:05:58;;;;;;;1999.90;999.90;;;9.50;99.90;;;;;;5050110;28;20416;-71
2023/10/28 02:08:24;;;;;;;1999.90;999.90;;;9.60;99.90;;;;;;5054580;28;20092;-71
2023/10/28 02:10:49;;;;;;;1999.90;999.90;;;9.60;99.90;;;;;;5046406;28;20147;-71
2023/10/28 02:13:15;;;;;;;1999.90;999.90;;;9.70;99.90;;;;;;5043417;28;20116;-71
2023/10/28 02:15:44;;;;;;;1999.90;999.90;;;9.70;99.90;;;;;;5055354;28;20029;-70
2023/10/28 02:18:10;;;;;;;1999.90;999.90;;;9.70;99.90;;;;;;5045316;28;20052;-71
2023/10/28 02:20:36;;;;;;;1999.90;999.90;;;9.70;99.90;;;;;;5045003;28;20360;-77
2023/10/28 02:23:02;;;;;;;1999.90;999.90;;;9.80;99.90;;;;;;5046802;28;20318;-70
2023/10/28 02:25:28;;;;;;;1999.90;999.90;;;9.90;99.90;;;;;;5053065;28;20033;-70
2023/10/28 02:27:53;;;;;;;1999.90;999.90;;;9.90;99.90;;;;;;5049401;28;20048;-70
2023/10/28 02:30:19;;;;;;;1999.90;999.90;;;10.00;99.90;;;;;;5052011;28;20033;-71
2023/10/28 02:32:45;;;;;;;1999.90;999.90;;;10.00;99.90;;;;;;5056659;28;20029;-70
2023/10/28 02:35:11;;;;;;;1999.90;999.90;;;10.10;99.90;;;;;;5056898;28;20025;-70
2023/10/28 02:37:39;;;;;;;1999.90;999.90;;;10.20;99.90;;;;;;5049495;28;20416;-78
2023/10/28 02:40:08;;;;;;;1999.90;999.90;;;10.20;99.90;;;;;;5049747;28;20025;-70
2023/10/28 02:42:34;;;;;;;1999.90;999.90;;;10.20;99.90;;;;;;5045136;28;20021;-70
2023/10/28 02:45:00;;;;;;;1999.90;999.90;;;10.30;99.90;;;;;;5044317;28;20067;-70
2023/10/28 02:47:25;;;;;;;1999.90;999.90;;;10.40;99.90;;;;;;5050114;28;20020;-77
2023/10/28 02:49:51;;;;;;;1999.90;999.90;;;10.40;99.90;;;;;;4974815;28;1972749;-70
2023/10/28 02:52:17;;;;;;;1999.90;999.90;;;10.40;99.90;;;;;;5048079;28;20355;-70
2023/10/28 02:54:43;;;;;;;1999.90;999.90;;;10.50;99.90;;;;;;5044955;28;20029;-71
2023/10/28 02:57:09;;;;;;;1999.90;999.90;;;10.50;99.90;;;;;;5047897;28;20442;-70
2023/10/28 02:59:35;;;;;;;1999.90;999.90;;;10.50;99.90;;;;;;5053937;28;20056;-71
2023/10/28 03:02:01;;;;;;;1999.90;999.90;;;10.50;99.90;;;;;;5054953;28;20021;-70
2023/10/28 03:04:26;;;;;;;1999.90;999.90;;;10.60;99.90;;;;;;5053783;28;20308;-71
2023/10/28 03:06:52;;;;;;;1999.90;999.90;;;10.60;99.90;;;;;;5054128;28;20025;-71
2023/10/28 03:09:18;;;;;;;1999.90;999.90;;;10.60;99.90;;;;;;5054741;28;20330;-71
2023/10/28 03:11:43;;;;;;;1999.90;999.90;;;10.60;99.90;;;;;;5047128;28;20496;-77
2023/10/28 03:14:09;;;;;;;1999.90;999.90;;;10.60;99.90;;;;;;5045641;28;20319;-71
2023/10/28 03:16:35;;;;;;;1999.90;999.90;;;10.60;99.90;;;;;;5051554;28;20108;-70
2023/10/28 03:19:01;;;;;;;1999.90;999.90;;;10.60;99.90;;;;;;5046880;28;20373;-71
2023/10/28 03:21:26;;;;;;;1999.90;999.90;;;10.70;99.90;;;;;;5053987;28;20071;-71
2023/10/28 03:23:52;;;;;;;1999.90;999.90;;;10.70;99.90;;;;;;5030714;28;20371;-71
2023/10/28 03:26:18;;;;;;;1999.90;999.90;;;10.70;99.90;;;;;;5032637;28;20109;-71
2023/10/28 03:28:43;;;;;;;1999.90;999.90;;;10.70;99.90;;;;;;5049227;28;20109;-70
2023/10/28 03:31:10;;;;;;;1999.90;999.90;;;10.70;99.90;;;;;;5047231;28;20107;-71
2023/10/28 03:33:37;;;;;;;1999.90;999.90;;;10.70;99.90;;;;;;5047571;28;20029;-71
2023/10/28 03:36:09;;;;;;;1999.90;999.90;;;10.70;99.90;;;;;;5048914;28;20021;-71
2023/10/28 03:38:35;;;;;;;1999.90;999.90;;;10.80;99.90;;;;;;5047314;28;20482;-71
2023/10/28 03:41:10;;;;;;;1999.90;999.90;;;10.80;99.90;;;;;;5048144;28;20029;-70
2023/10/28 03:43:37;;;;;;;1999.90;999.90;;;10.80;99.90;;;;;;5042426;28;20375;-71
2023/10/28 03:46:03;;;;;;;1999.90;999.90;;;10.80;99.90;;;;;;5039901;28;20025;-72
2023/10/28 03:48:30;;;;;;;1999.90;999.90;;;10.80;99.90;;;;;;5046517;28;20101;-71
2023/10/28 03:50:57;;;;;;;1999.90;999.90;;;10.80;99.90;;;;;;5044546;28;20056;-71
2023/10/28 03:53:23;;;;;;;1999.90;999.90;;;10.80;99.90;;;;;;5041504;28;20108;-72
2023/10/28 03:55:48;;;;;;;1999.90;999.90;;;10.80;99.90;;;;;;5047651;28;20128;-70
2023/10/28 03:58:14;;;;;;;1999.90;999.90;;;10.80;99.90;;;;;;5047875;28;20026;-71
2023/10/28 04:00:40;;;;;;;1999.90;999.90;;;10.80;99.90;;;;;;5050330;28;20040;-71
2023/10/28 04:03:06;;;;;;;1999.90;999.90;;;10.90;99.90;;;;;;5047548;28;20357;-71
2023/10/28 04:05:31;;;;;;;1999.90;999.90;;;10.90;99.90;;;;;;5040011;28;20082;-71
2023/10/28 04:07:57;;;;;;;1999.90;999.90;;;10.90;99.90;;;;;;5052598;28;20033;-71
2023/10/28 04:10:23;;;;;;;1999.90;999.90;;;10.90;99.90;;;;;;5047698;28;20037;-77
2023/10/28 04:12:49;;;;;;;1999.90;999.90;;;10.90;99.90;;;;;;5047500;28;20411;-72
2023/10/28 04:15:16;;;;;;;1999.90;999.90;;;10.90;99.90;;;;;;5052375;28;20371;-71
2023/10/28 04:17:42;;;;;;;1999.90;999.90;;;10.90;99.90;;;;;;5043458;28;20332;-71
2023/10/28 04:20:10;;;;;;;1999.90;999.90;;;10.80;99.90;;;;;;5048527;28;20032;-72
2023/10/28 04:22:38;;;;;;;1999.90;999.90;;;10.90;99.90;;;;;;5051349;28;20430;-71
2023/10/28 04:25:05;;;;;;;1999.90;999.90;;;10.80;99.90;;;;;;5050577;28;20411;-71
2023/10/28 04:27:31;;;;;;;;;;;10.80;99.90;;;;;;5045372;28;20507;-71
2023/10/28 04:29:57;;;;;;;1999.90;999.90;;;10.80;99.90;;;;;;5048430;28;20212;-71
2023/10/28 04:32:24;;;;;;;1999.90;999.90;;;10.80;99.90;;;;;;5044851;28;20035;-71
2023/10/28 04:34:53;;;;;;;1999.90;999.90;;;10.80;99.90;;;;;;5051760;28;20441;-71
2023/10/28 04:37:19;;;;;;;1999.90;999.90;;;10.80;99.90;;;;;;5045823;28;20040;-71
2023/10/28 04:39:44;;;;;;;1999.90;999.90;;;10.80;99.90;;;;;;5040500;28;20025;-71
2023/10/28 04:42:10;;;;;;;1999.90;999.90;;;10.80;99.90;;;;;;5048122;28;20035;-71
2023/10/28 04:44:36;;;;;;;1999.90;999.90;;;10.80;99.90;;;;;;5045071;28;20331;-71
2023/10/28 04:47:02;;;;;;;1999.90;999.90;;;10.80;99.90;;;;;;5048118;28;20103;-71
2023/10/28 04:49:29;;;;;;;1999.90;999.90;;;10.80;99.90;;;;;;5050720;28;20444;-71
2023/10/28 04:51:55;;;;;;;1999.90;999.90;;;10.80;99.90;;;;;;5041512;28;20068;-76
2023/10/28 04:54:21;;;;;;;1999.90;999.90;;;10.80;99.90;;;;;;5048328;28;20412;-71
2023/10/28 04:56:48;;;;;;;1999.90;999.90;;;10.80;99.90;;;;;;5050288;28;20108;-71
2023/10/28 04:59:15;;;;;;;1999.90;999.90;;;10.80;99.90;;;;;;5042059;28;20038;-71
2023/10/28 05:01:41;;;;;;;1999.90;999.90;;;10.80;99.90;;;;;;5046777;28;20079;-71
2023/10/28 05:04:10;;;;;;;1999.90;999.90;;;10.70;99.90;;;;;;5051988;28;20021;-71
2023/10/28 05:06:36;;;;;;;1999.90;999.90;;;10.70;99.90;;;;;;5048249;28;20265;-71
2023/10/28 05:09:02;;;;;;;1999.90;999.90;;;10.70;99.90;;;;;;5053191;28;20025;-78
2023/10/28 05:11:28;;;;;;;1999.90;999.90;;;10.70;99.90;;;;;;5051573;28;20037;-71
2023/10/28 05:13:54;;;;;;;1999.90;999.90;;;10.70;99.90;;;;;;5048388;28;20044;-71
2023/10/28 05:16:20;;;;;;;1999.90;999.90;;;10.70;99.90;;;;;;5047407;28;20480;-71
2023/10/28 05:18:46;;;;;;;1999.90;999.90;;;10.70;99.90;;;;;;5050594;28;20061;-72
2023/10/28 05:21:13;;;;;;;1999.90;999.90;;;10.70;99.90;;;;;;5052992;28;20040;-71
2023/10/28 05:23:39;;;;;;;1999.90;999.90;;;10.70;99.90;;;;;;5046891;28;20028;-71
2023/10/28 05:26:05;;;;;;;1999.90;999.90;;;10.70;99.90;;;;;;5046225;28;20604;-76
2023/10/28 05:28:31;;;;;;;1999.90;999.90;;;10.70;99.90;;;;;;5050593;28;20308;-71
2023/10/28 05:30:56;;;;;;;1999.90;999.90;;;10.70;99.90;;;;;;5053961;28;20028;-71
2023/10/28 05:33:22;;;;;;;1999.90;999.90;;;10.70;99.90;;;;;;5052464;28;20431;-72
2023/10/28 05:35:49;;;;;;;1999.90;999.90;;;10.70;99.90;;;;;;5052877;28;20090;-76
2023/10/28 05:38:15;;;;;;;1999.90;999.90;;;10.70;99.90;;;;;;5053508;28;20327;-77
2023/10/28 05:40:41;;;;;;;1999.90;999.90;;;10.70;99.90;;;;;;5049657;28;20041;-71
2023/10/28 05:43:06;;;;;;;1999.90;999.90;;;10.70;99.90;;;;;;5053624;28;20484;-72
2023/10/28 05:45:32;;;;;;;1999.90;999.90;;;10.70;99.90;;;;;;5053679;28;20025;-71
2023/10/28 05:47:58;;;;;;;1999.90;999.90;;;10.70;99.90;;;;;;5057524;28;20021;-71
2023/10/28 05:50:24;;;;;;;1999.90;999.90;;;10.70;99.90;;;;;;5051257;28;20041;-71
2023/10/28 05:52:49;;;;;;;1999.90;999.90;;;10.70;99.90;;;;;;5053564;28;20025;-72
2023/10/28 05:55:15;;;;;;;1999.90;999.90;;;10.70;99.90;;;;;;5058552;28;20029;-72
2023/10/28 05:57:41;;;;;;;1999.90;999.90;;;10.70;99.90;;;;;;5056237;28;20432;-71
2023/10/28 06:00:10;;;;;;;1999.90;999.90;;;10.70;99.90;;;;;;5056205;28;20028;-71
2023/10/28 06:02:37;;;;;;;1999.90;999.90;;;10.70;99.90;;;;;;5054096;28;20400;-72
2023/10/28 06:05:05;;;;;;;1999.90;999.90;;;10.70;99.90;;;;;;5048426;28;20021;-72
2023/10/28 06:07:31;;;;;;;1999.90;999.90;;;10.70;99.90;;;;;;5052830;28;20486;-71
2023/10/28 06:09:57;;;;;;;1999.90;999.90;;;10.70;99.90;;;;;;5054006;28;20032;-77
2023/10/28 06:12:24;;;;;;;1999.90;999.90;;;10.80;99.90;;;;;;5046866;28;20361;-71
2023/10/28 06:14:50;;;;;;;1999.90;999.90;;;10.70;99.90;;;;;;5038762;28;20030;-71
2023/10/28 06:17:17;;;;;;;1999.90;999.90;;;10.80;99.90;;;;;;5048302;28;20028;-71
2023/10/28 06:19:43;;;;;;;1999.90;999.90;;;10.80;99.90;;;;;;5051781;28;20048;-71
2023/10/28 06:22:11;;;;;;;1999.90;999.90;;;10.70;99.90;;;;;;5044045;28;20037;-71
2023/10/28 06:24:38;;;;;;;1999.90;999.90;;;10.80;99.90;;;;;;5051620;28;20163;-71
2023/10/28 06:27:04;;;;;;;;;;;10.80;99.90;;;;;;5051847;28;20086;-72
2023/10/28 06:29:29;;;;;;;1999.90;999.90;;;10.80;99.90;;;;;;5049590;28;20367;-71
2023/10/28 06:31:58;;;;;;;1999.90;999.90;;;10.80;99.90;;;;;;5046923;28;20420;-72
2023/10/28 06:34:27;;;;;;;1999.90;999.90;;;10.70;99.90;;;;;;5051015;28;20029;-71
2023/10/28 06:36:53;;;;;;;1999.90;999.90;;;10.80;99.90;;;;;;5052480;28;20061;-71
2023/10/28 06:39:19;;;;;;;1999.90;999.90;;;10.80;99.90;;;;;;5043307;28;20022;-71
2023/10/28 06:41:44;;;;;;;1999.90;999.90;;;10.80;99.90;;;;;;5048196;28;20033;-71
2023/10/28 06:44:10;;;;;;;1999.90;999.90;;;10.80;99.90;;;;;;5052101;28;20025;-71
2023/10/28 06:46:36;;;;;;;1999.90;999.90;;;10.80;99.90;;;;;;5052014;28;20029;-71
2023/10/28 06:49:02;;;;;;;1999.90;999.90;;;10.90;99.90;;;;;;5048776;28;20013;-71
2023/10/28 06:51:28;;;;;;;1999.90;999.90;;;10.90;99.90;;;;;;5046199;28;20044;-73
2023/10/28 06:53:54;;;;;;;1999.90;999.90;;;10.90;99.90;;;;;;5044619;28;20044;-71
2023/10/28 06:56:20;;;;;;;1999.90;999.90;;;10.90;99.90;;;;;;5048551;28;20394;-71
2023/10/28 06:58:45;;;;;;;1999.90;999.90;;;10.90;99.90;;;;;;5052201;28;20481;-71
2023/10/28 07:01:11;;;;;;;1999.90;999.90;;;10.90;99.90;;;;;;5050756;28;20091;-71
2023/10/28 07:03:37;;;;;;;1999.90;999.90;;;11.00;99.90;;;;;;5048443;28;20025;-72
2023/10/28 07:06:04;;;;;;;1999.90;999.90;;;11.00;99.90;;;;;;5047881;28;20057;-71
2023/10/28 07:08:30;;;;;;;1999.90;999.90;;;11.00;99.90;;;;;;5043412;28;20109;-71
2023/10/28 07:10:56;;;;;;;1999.90;999.90;;;11.00;99.90;;;;;;5044718;28;20116;-71
2023/10/28 07:13:21;;;;;;;1999.90;999.90;;;11.00;99.90;;;;;;5041947;28;20100;-71
2023/10/28 07:15:47;;;;;;;1999.90;999.90;;;11.00;99.90;;;;;;5051249;28;20363;-71
2023/10/28 07:18:13;;;;;;;1999.90;999.90;;;11.10;99.90;;;;;;5043015;28;20036;-77
2023/10/28 07:20:42;;;;;;;1999.90;999.90;;;11.10;99.90;;;;;;5039999;28;20064;-71
2023/10/28 07:23:08;;;;;;;1999.90;999.90;;;11.00;99.90;;;;;;5051456;28;20029;-71
2023/10/28 07:25:34;;;;;;;1999.90;999.90;;;11.00;99.90;;;;;;5037202;28;20458;-71
2023/10/28 07:27:59;;;;;;;1999.90;999.90;;;11.10;99.90;;;;;;5046561;28;20412;-71
2023/10/28 07:30:25;;;;;;;1999.90;999.90;;;11.10;99.90;;;;;;5042427;28;20428;-71
2023/10/28 07:32:51;;;;;;;1999.90;999.90;;;11.10;99.90;;;;;;5045855;28;20278;-71
2023/10/28 07:35:17;;;;;;;1999.90;999.90;;;11.10;99.90;;;;;;5045844;28;20320;-77
2023/10/28 07:37:42;;;;;;;1999.90;999.90;;;11.10;99.90;;;;;;5043491;28;20305;-71
2023/10/28 07:40:11;;;;;;;1999.90;999.90;;;11.10;99.90;;;;;;5036487;28;20100;-71
2023/10/28 07:42:36;;;;;;;1999.90;999.90;;;11.10;99.90;;;;;;5036070;28;20308;-71
2023/10/28 07:45:04;;;;;;;1999.90;999.90;;;11.10;99.90;;;;;;5051937;28;20021;-72
2023/10/28 07:47:31;;;;;;;1999.90;999.90;;;11.10;99.90;;;;;;5047187;28;20431;-71
2023/10/28 07:49:57;;;;;;;1999.90;999.90;;;11.20;99.90;;;;;;5040922;28;20041;-70
2023/10/28 07:52:22;;;;;;;1999.90;999.90;;;11.20;99.90;;;;;;5044025;28;20113;-72
2023/10/28 07:54:48;;;;;;;1999.90;999.90;;;11.30;99.90;;;;;;5048546;28;20375;-71
2023/10/28 07:57:14;;;;;;;1999.90;999.90;;;11.20;99.90;;;;;;5048252;28;20021;-71
2023/10/28 07:59:39;;;;;;;1999.90;999.90;;;11.20;99.90;;;;;;5038577;28;20027;-70
2023/10/28 08:02:05;;;;;;;1999.90;999.90;;;11.30;99.90;;;;;;5041297;28;20025;-70
2023/10/28 08:04:31;;;;;;;1999.90;999.90;;;11.30;99.90;;;;;;5063374;28;20046;-71
2023/10/28 08:06:56;;;;;;;1999.90;999.90;;;11.30;99.90;;;;;;5045286;28;20045;-71
2023/10/28 08:09:22;;;;;;;1999.90;999.90;;;11.30;99.90;;;;;;5051916;28;20025;-78
2023/10/28 08:11:48;;;;;;;1999.90;999.90;;;11.30;99.90;;;;;;5043361;28;20033;-71
2023/10/28 08:14:14;;;;;;;1999.90;999.90;;;11.30;99.90;;;;;;5034193;28;20040;-71
2023/10/28 08:16:40;;;;;;;1999.90;999.90;;;11.40;99.90;;;;;;5053376;28;20445;-70
2023/10/28 08:19:06;;;;;;;1999.90;999.90;;;11.40;99.90;;;;;;5052610;28;20431;-78
2023/10/28 08:21:32;;;;;;;;;;;11.40;99.90;;;;;;5044514;28;20028;-71
2023/10/28 08:23:59;;;;;;;1999.90;999.90;;;11.50;99.90;;;;;;5044444;28;19912;-70
2023/10/28 08:26:26;;;;;;;1999.90;999.90;;;11.50;99.90;;;;;;5067464;28;20082;-70
2023/10/28 08:28:52;;;;;;;1999.90;999.90;;;11.50;99.90;;;;;;5048612;28;20017;-70
2023/10/28 08:31:18;;;;;;;1999.90;999.90;;;11.60;99.90;;;;;;5049873;28;20041;-70
2023/10/28 08:33:43;;;;;;;1999.90;999.90;;;11.70;99.90;;;;;;5034182;28;20017;-71
2023/10/28 08:36:10;;;;;;;1999.90;999.90;;;11.70;99.90;;;;;;5046811;28;20074;-69
2023/10/28 08:38:36;;;;;;;1999.90;999.90;;;11.70;99.90;;;;;;5040599;28;20289;-70
2023/10/28 08:41:02;;;;;;;;;;;11.70;99.90;;;;;;5037258;28;20037;-70
2023/10/28 08:43:31;;;;;;;1999.90;999.90;;;11.80;99.90;;;;;;5037878;28;20255;-70
2023/10/28 08:45:57;;;;;;;1999.90;999.90;;;11.80;99.90;;;;;;5044317;28;20029;-71
2023/10/28 08:48:23;;;;;;;1999.90;999.90;;;11.70;99.90;;;;;;5047791;28;20020;-70
2023/10/28 08:50:59;;;;;;;1999.90;999.90;;;11.80;99.90;;;;;;5034201;28;20120;-71
2023/10/28 08:53:25;;;;;;;1999.90;999.90;;;11.80;99.90;;;;;;5048719;28;20040;-70
2023/10/28 08:55:51;;;;;;;1999.90;999.90;;;11.90;99.90;;;;;;5046866;28;20034;-70
2023/10/28 08:58:19;;;;;;;1999.90;999.90;;;12.00;99.90;;;;;;5043623;28;20323;-70
2023/10/28 09:00:48;;;;;;;1999.90;999.90;;;12.00;99.90;;;;;;5048324;28;20060;-70
2023/10/28 09:03:22;;;;;;;1999.90;999.90;;;12.00;99.90;;;;;;5045954;28;20442;-70
2023/10/28 09:05:52;;;;;;;1999.90;999.90;;;12.00;99.90;;;;;;5043288;28;20030;-70
2023/10/28 09:08:19;;;;;;;1999.90;999.90;;;12.00;99.90;;;;;;5037834;28;20033;-70
2023/10/28 09:10:48;;;;;;;;;;;12.10;99.90;;;;;;5036129;28;20029;-70
2023/10/28 09:13:15;;;;;;;1999.90;999.90;;;12.10;99.90;;;;;;5037997;28;19923;-70
2023/10/28 09:15:41;;;;;;;1999.90;999.90;;;12.10;99.90;;;;;;5033225;28;20421;-70
2023/10/28 09:18:08;;;;;;;1999.90;999.90;;;12.10;99.90;;;;;;5042733;28;20075;-83
2023/10/28 09:20:37;;;;;;;1999.90;999.90;;;12.10;99.90;;;;;;5046945;28;20336;-70
2023/10/28 09:23:03;;;;;;;1999.90;999.90;;;12.10;99.90;;;;;;5047634;28;20420;-70
2023/10/28 09:25:30;;;;;;;1999.90;999.90;;;12.10;99.90;;;;;;5049211;28;20097;-71
2023/10/28 09:27:56;;;;;;;1999.90;999.90;;;12.20;99.90;;;;;;5041772;28;20049;-70
2023/10/28 09:30:21;;;;;;;1999.90;999.90;;;12.20;99.90;;;;;;5050490;28;20102;-70
2023/10/28 09:32:47;;;;;;;1999.90;999.90;;;12.20;99.90;;;;;;5046371;28;20624;-70
2023/10/28 09:35:13;;;;;;;1999.90;999.90;;;12.20;99.90;;;;;;5040211;28;20112;-71
2023/10/28 09:37:40;;;;;;;1999.90;999.90;;;12.30;99.90;;;;;;5037844;28;20060;-70
2023/10/28 09:40:08;;;;;;;1999.90;999.90;;;12.40;99.90;;;;;;5041168;28;20034;-70
2023/10/28 09:42:36;;;;;;;1999.90;999.90;;;12.40;99.90;;;;;;5051435;28;20108;-70
2023/10/28 09:45:06;;;;;;;1999.90;999.90;;;12.40;99.90;;;;;;5046322;28;20025;-70
2023/10/28 09:48:01;;;;;;;1999.90;999.90;;;12.50;99.90;;;;;;5051788;28;20025;-71
2023/10/28 09:50:29;;;;;;;1999.90;999.90;;;12.60;99.90;;;;;;5048672;28;20041;-70
2023/10/28 09:52:56;;;;;;;1999.90;999.90;;;12.60;99.90;;;;;;5045114;28;20036;-80
2023/10/28 09:55:51;;;;;;;1999.90;999.90;;;12.70;99.90;;;;;;5045326;28;20033;-70
2023/10/28 09:58:32;;;;;;;1999.90;999.90;;;12.60;99.90;;;;;;5044854;28;20127;-84
2023/10/28 10:01:21;;;;;;;1999.90;999.90;;;12.60;99.90;;;;;;5037389;28;20297;-70
2023/10/28 10:04:06;;;;;;;1999.90;999.90;;;12.60;99.90;;;;;;5050100;28;20021;-70
2023/10/28 10:06:34;;;;;;;1999.90;999.90;;;12.60;99.90;;;;;;5040807;28;20392;-71
2023/10/28 10:09:00;;;;;;;1999.90;999.90;;;12.60;99.90;;;;;;5046377;28;20100;-71
2023/10/28 10:11:27;;;;;;;1999.90;999.90;;;12.60;99.90;;;;;;5048520;28;20032;-71
2023/10/28 10:13:55;;;;;;;1999.90;999.90;;;12.70;99.90;;;;;;5048598;28;20033;-71
2023/10/28 10:16:33;;;;;;;1999.90;999.90;;;12.70;99.90;;;;;;5037582;28;20025;-70
2023/10/28 10:19:05;;;;;;;1999.90;999.90;;;12.80;99.90;;;;;;5049274;28;20025;-71
2023/10/28 10:21:34;;;;;;;1999.90;999.90;;;12.70;99.90;;;;;;5042746;28;20490;-71
2023/10/28 10:24:06;;;;;;;1999.90;999.90;;;12.70;99.90;;;;;;5046793;28;20029;-71
2023/10/28 10:26:33;;;;;;;1999.90;999.90;;;12.80;99.90;;;;;;5044293;28;20427;-71
2023/10/28 10:29:03;;;;;;;1999.90;999.90;;;12.80;99.90;;;;;;5042926;28;20105;-71
2023/10/28 10:31:36;;;;;;;1999.90;999.90;;;12.70;99.90;;;;;;5044893;28;20056;-73
2023/10/28 10:34:06;;;;;;;1999.90;999.90;;;12.80;99.90;;;;;;5043678;28;20028;-71
2023/10/28 10:36:38;;;;;;;1999.90;999.90;;;12.70;99.90;;;;;;5047954;28;20025;-72
2023/10/28 10:39:14;;;;;;;1999.90;999.90;;;12.80;99.90;;;;;;5048185;28;20022;-71
2023/10/28 10:41:40;;;;;;;;;;;12.80;99.90;;;;;;5052897;28;20454;-71
2023/10/28 10:44:32;;;;;;;1999.90;999.90;;;12.90;99.90;;;;;;5048709;28;19953;-71
2023/10/28 10:46:58;;;;;;;1999.90;999.90;;;12.90;99.90;;;;;;5050977;28;20034;-71
2023/10/28 10:49:24;;;;;;;1999.90;999.90;;;12.90;99.90;;;;;;5045149;28;20041;-70
2023/10/28 10:51:51;;;;;;;1999.90;999.90;;;13.00;99.90;;;;;;5046013;28;20037;-71
2023/10/28 10:54:17;;;;;;;1999.90;999.90;;;13.00;99.90;;;;;;5043294;28;20030;-70
2023/10/28 10:56:48;;;;;;;1999.90;999.90;;;13.00;99.90;;;;;;5042016;28;20421;-71
2023/10/28 10:59:14;;;;;;;1999.90;999.90;;;13.00;99.90;;;;;;5042435;28;20108;-71
2023/10/28 11:01:40;;;;;;;1999.90;999.90;;;13.00;99.90;;;;;;5046811;28;20120;-71
2023/10/28 11:04:07;;;;;;;1999.90;999.90;;;13.00;99.90;;;;;;5053086;28;20098;-70
2023/10/28 11:06:33;;;;;;;1999.90;999.90;;;12.90;99.90;;;;;;5044265;28;20335;-81
2023/10/28 11:09:03;;;;;;;;;;;12.90;99.90;;;;;;5055049;28;20340;-71
2023/10/28 11:11:29;;;;;;;1999.90;999.90;;;12.90;99.90;;;;;;5052434;28;19963;-79
2023/10/28 11:13:56;;;;;;;1999.90;999.90;;;12.80;99.90;;;;;;5042459;28;20136;-70
2023/10/28 11:16:27;;;;;;;1999.90;999.90;;;12.90;99.90;;;;;;5038418;28;20029;-70
2023/10/28 11:18:53;;;;;;;1999.90;999.90;;;12.90;99.90;;;;;;5047774;28;20420;-70
2023/10/28 11:21:25;;;;;;;1999.90;999.90;;;12.90;99.90;;;;;;5053808;28;20037;-70
2023/10/28 11:23:54;;;;;;;1999.90;999.90;;;12.90;99.90;;;;;;5042274;28;20360;-70
2023/10/28 11:26:20;;;;;;;1999.90;999.90;;;13.00;99.90;;;;;;5045112;28;20794;-70
2023/10/28 11:28:46;;;;;;;1999.90;999.90;;;13.00;99.90;;;;;;5053164;28;20033;-70
2023/10/28 11:31:12;;;;;;;1999.90;999.90;;;13.10;99.90;;;;;;5043897;28;20039;-71
2023/10/28 11:33:38;;;;;;;1999.90;999.90;;;13.20;99.90;;;;;;5048186;28;20029;-70
2023/10/28 11:36:04;;;;;;;1999.90;999.90;;;13.20;99.90;;;;;;5045227;28;20068;-70
2023/10/28 11:38:33;;;;;;;1999.90;999.90;;;13.30;99.90;;;;;;5050871;28;20328;-70
2023/10/28 11:41:20;;;;;;;1999.90;999.90;;;13.50;99.90;;;;;;5040963;28;20041;-71
2023/10/28 11:43:48;;;;;;;1999.90;999.90;;;13.50;99.90;;;;;;5044204;28;20401;-72
2023/10/28 11:46:14;;;;;;;1999.90;999.90;;;13.70;99.90;;;;;;5054386;28;20047;-71
2023/10/28 11:48:41;;;;;;;1999.90;999.90;;;13.70;99.90;;;;;;5049009;28;20491;-70
2023/10/28 11:51:08;;;;;;;1999.90;999.90;;;13.80;99.90;;;;;;5044577;28;20073;-81
2023/10/28 11:53:34;;;;;;;1999.90;999.90;;;13.80;99.90;;;;;;5047294;28;20029;-81
2023/10/28 11:56:00;;;;;;;1999.90;999.90;;;13.70;99.90;;;;;;5037157;28;20117;-70
2023/10/28 11:58:26;;;;;;;1999.90;999.90;;;13.80;99.90;;;;;;5053058;28;20362;-70
2023/10/28 12:00:55;;;;;;;1999.90;999.90;;;13.80;99.90;;;;;;5054440;28;20028;-70
2023/10/28 12:03:21;;;;;;;1999.90;999.90;;;13.80;99.90;;;;;;5049462;28;20025;-70